createdAt,value
2018-10-07T00:04:33.638Z,12.7
2018-10-07T00:09:36.100Z,12.5
2018-10-07T00:14:38.528Z,12.4
2018-10-07T00:19:40.940Z,12.4
2018-10-07T00:24:43.413Z,12.3
2018-10-07T00:29:45.853Z,12.3
2018-10-07T00:34:48.291Z,12.3
2018-10-07T00:39:50.711Z,12.4
2018-10-07T00:44:53.189Z,12.4
2018-10-07T00:49:55.610Z,12.3
2018-10-07T00:54:58.038Z,12.3
2018-10-07T01:00:00.485Z,12.3
2018-10-07T01:05:02.928Z,12.3
2018-10-07T01:10:05.379Z,12.3
2018-10-07T01:15:07.776Z,12.2
2018-10-07T01:20:10.224Z,12.2
2018-10-07T01:25:12.666Z,12.3
2018-10-07T01:30:15.214Z,12.3
2018-10-07T01:35:17.556Z,12.3
2018-10-07T01:40:19.990Z,12.3
2018-10-07T01:45:22.473Z,12.1
2018-10-07T01:50:25.087Z,12.1
2018-10-07T01:55:27.311Z,12
2018-10-07T02:00:29.751Z,11.9
2018-10-07T02:05:32.212Z,11.8
2018-10-07T02:10:34.637Z,11.7
2018-10-07T02:15:37.084Z,11.6
2018-10-07T02:20:39.501Z,11.6
2018-10-07T02:25:41.954Z,11.6
2018-10-07T02:30:44.390Z,11.6
2018-10-07T02:35:46.820Z,11.6
2018-10-07T02:40:49.271Z,11.6
2018-10-07T02:45:51.718Z,11.5
2018-10-07T02:50:54.148Z,11.5
2018-10-07T02:55:56.588Z,11.4
2018-10-07T03:00:59.124Z,11.3
2018-10-07T03:06:01.505Z,11.3
2018-10-07T03:11:03.917Z,11.3
2018-10-07T03:16:06.371Z,11.3
2018-10-07T03:21:08.791Z,11.3
2018-10-07T03:26:11.231Z,11.3
2018-10-07T03:31:13.758Z,11.3
2018-10-07T03:36:16.141Z,11.4
2018-10-07T03:41:18.573Z,11.4
2018-10-07T03:46:21.058Z,11.4
2018-10-07T03:51:23.470Z,11.3
2018-10-07T03:56:25.869Z,11.2
2018-10-07T04:01:28.487Z,11.1
2018-10-07T04:06:30.779Z,11
2018-10-07T04:11:33.278Z,10.9
2018-10-07T04:16:35.863Z,10.8
2018-10-07T04:21:38.185Z,10.8
2018-10-07T04:26:40.576Z,10.8
2018-10-07T04:36:45.502Z,10.7
2018-10-07T04:41:47.834Z,10.7
2018-10-07T04:46:50.311Z,10.7
2018-10-07T04:51:52.725Z,10.7
2018-10-07T04:56:55.173Z,10.7
2018-10-07T05:01:57.600Z,10.6
2018-10-07T05:07:00.077Z,10.5
2018-10-07T05:12:02.600Z,10.5
2018-10-07T05:17:04.921Z,10.4
2018-10-07T05:22:07.378Z,10.4
2018-10-07T05:27:09.795Z,10.5
2018-10-07T05:32:12.257Z,10.5
2018-10-07T05:37:14.722Z,10.6
2018-10-07T05:42:17.139Z,10.6
2018-10-07T05:47:19.564Z,10.7
2018-10-07T05:52:21.989Z,10.8
2018-10-07T05:57:24.475Z,10.8
2018-10-07T06:02:26.904Z,10.9
2018-10-07T06:07:29.339Z,10.9
2018-10-07T06:12:31.769Z,11
2018-10-07T06:17:34.293Z,11
2018-10-07T06:22:36.653Z,11
2018-10-07T06:27:39.100Z,11.1
2018-10-07T06:32:41.557Z,11.2
2018-10-07T06:37:43.956Z,11.2
2018-10-07T06:42:46.417Z,11.2
2018-10-07T06:47:48.843Z,11.3
2018-10-07T06:52:51.291Z,11.3
2018-10-07T06:57:53.785Z,11.4
2018-10-07T07:02:56.176Z,11.5
2018-10-07T07:07:58.613Z,11.7
2018-10-07T07:13:01.099Z,12
2018-10-07T07:18:03.565Z,12.3
2018-10-07T07:23:05.949Z,12.6
2018-10-07T07:28:08.369Z,12.8
2018-10-07T07:33:10.839Z,13.1
2018-10-07T07:38:13.241Z,13.2
2018-10-07T07:43:15.679Z,13.4
2018-10-07T07:48:18.137Z,13.5
2018-10-07T07:53:20.565Z,13.7
2018-10-07T07:58:23.006Z,14
2018-10-07T08:03:25.471Z,14.2
2018-10-07T08:08:27.893Z,14.3
2018-10-07T08:13:30.332Z,14.3
2018-10-07T08:18:32.829Z,14.3
2018-10-07T08:23:35.315Z,14.3
2018-10-07T08:28:37.667Z,14.4
2018-10-07T08:33:40.084Z,14.4
2018-10-07T08:38:42.544Z,14.5
2018-10-07T08:43:44.969Z,14.6
2018-10-07T08:48:47.415Z,14.7
2018-10-07T08:53:49.858Z,14.7
2018-10-07T08:58:52.297Z,14.9
2018-10-07T09:03:54.757Z,14.8
2018-10-07T09:08:57.288Z,14.9
2018-10-07T09:13:59.616Z,14.8
2018-10-07T09:19:02.050Z,14.7
2018-10-07T09:24:04.491Z,14.6
2018-10-07T09:29:06.926Z,14.4
2018-10-07T09:34:09.408Z,14.3
2018-10-07T09:39:11.886Z,14.2
2018-10-07T09:44:14.263Z,14.1
2018-10-07T09:49:16.694Z,14
2018-10-07T09:54:19.132Z,14.1
2018-10-07T09:59:21.580Z,14
2018-10-07T10:04:24.252Z,13.9
2018-10-07T10:09:26.453Z,13.8
2018-10-07T10:14:28.899Z,13.6
2018-10-07T10:19:31.378Z,13.5
2018-10-07T10:24:33.778Z,13.4
2018-10-07T10:29:36.226Z,13.4
2018-10-07T10:34:38.655Z,13.4
2018-10-07T10:39:41.186Z,13.3
2018-10-07T10:44:43.543Z,13.2
2018-10-07T10:49:45.972Z,13.2
2018-10-07T10:54:48.408Z,13.1
2018-10-07T10:59:50.868Z,13.1
2018-10-07T11:04:53.836Z,13
2018-10-07T11:09:55.797Z,13
2018-10-07T11:14:58.179Z,13
2018-10-07T11:20:00.617Z,12.9
2018-10-07T11:25:03.073Z,12.9
2018-10-07T11:30:05.595Z,12.9
2018-10-07T11:35:07.955Z,12.9
2018-10-07T11:40:10.442Z,12.9
2018-10-07T11:45:12.815Z,12.9
2018-10-07T11:50:15.285Z,12.9
2018-10-07T11:55:17.712Z,12.9
2018-10-07T12:00:20.156Z,13
2018-10-07T12:05:22.613Z,13
2018-10-07T12:10:25.038Z,13
2018-10-07T12:15:27.478Z,12.9
2018-10-07T12:20:29.913Z,12.9
2018-10-07T12:25:32.352Z,12.8
2018-10-07T12:30:34.811Z,12.8
2018-10-07T12:35:37.376Z,12.7
2018-10-07T12:40:39.678Z,12.7
2018-10-07T12:45:42.099Z,12.7
2018-10-07T12:55:46.998Z,12.6
2018-10-07T13:00:49.419Z,12.6
2018-10-07T13:05:51.873Z,12.6
2018-10-07T13:10:54.324Z,12.6
2018-10-07T13:15:56.904Z,12.6
2018-10-07T13:20:59.189Z,12.5
2018-10-07T13:26:01.723Z,12.5
2018-10-07T13:31:04.069Z,12.5
2018-10-07T13:36:06.524Z,12.4
2018-10-07T13:41:08.960Z,12.3
2018-10-07T13:46:11.401Z,12.2
2018-10-07T13:51:13.830Z,12.2
2018-10-07T13:56:16.281Z,12.2
2018-10-07T14:01:18.711Z,12.2
2018-10-07T14:06:21.723Z,12.1
2018-10-07T14:11:23.584Z,12.1
2018-10-07T14:16:26.027Z,12.1
2018-10-07T14:21:28.475Z,12.1
2018-10-07T14:26:30.912Z,12.1
2018-10-07T14:31:33.352Z,12.1
2018-10-07T14:36:35.795Z,12.1
2018-10-07T14:41:38.281Z,12.1
2018-10-07T14:46:40.683Z,12.1
2018-10-07T14:51:43.133Z,12
2018-10-07T14:56:45.550Z,12
2018-10-07T15:01:47.984Z,11.9
2018-10-07T15:06:50.454Z,11.9
2018-10-07T15:11:52.878Z,11.9
2018-10-07T15:16:55.324Z,11.8
2018-10-07T15:21:57.764Z,11.8
2018-10-07T15:27:00.201Z,11.7
2018-10-07T15:32:02.628Z,11.7
2018-10-07T15:37:05.082Z,11.6
2018-10-07T15:47:09.951Z,11.6
2018-10-07T15:52:12.386Z,11.5
2018-10-07T15:57:14.828Z,11.5
2018-10-07T16:02:17.278Z,11.5
2018-10-07T16:07:19.749Z,11.5
2018-10-07T16:12:22.247Z,11.5
2018-10-07T16:17:24.710Z,11.5
2018-10-07T16:22:27.045Z,11.4
2018-10-07T16:27:29.475Z,11.4
2018-10-07T16:32:31.910Z,11.4
2018-10-07T16:37:34.374Z,11.3
2018-10-07T16:42:36.815Z,11.3
2018-10-07T16:47:39.280Z,11.2
2018-10-07T16:52:41.711Z,11.1
2018-10-07T16:57:44.121Z,11
2018-10-07T17:02:46.561Z,11
2018-10-07T17:07:49.020Z,10.9
2018-10-07T17:12:51.529Z,10.9
2018-10-07T17:17:53.906Z,10.8
2018-10-07T17:22:56.327Z,10.7
2018-10-07T17:27:58.786Z,10.6
2018-10-07T17:33:01.247Z,10.6
2018-10-07T17:38:03.651Z,10.5
2018-10-07T17:43:06.073Z,10.5
2018-10-07T17:48:08.576Z,10.4
2018-10-07T17:53:10.955Z,10.4
2018-10-07T17:58:13.397Z,10.4
2018-10-07T18:03:15.904Z,10.3
2018-10-07T18:08:18.290Z,10.3
2018-10-07T18:13:20.735Z,10.3
2018-10-07T18:18:23.281Z,10.2
2018-10-07T18:23:25.670Z,10.2
2018-10-07T18:28:28.037Z,10.2
2018-10-07T18:33:30.480Z,10.1
2018-10-07T18:38:32.920Z,10.1
2018-10-07T18:43:35.369Z,10.1
2018-10-07T18:48:37.909Z,10.1
2018-10-07T18:53:40.251Z,10.1
2018-10-07T18:58:42.675Z,10.1
2018-10-07T19:03:45.122Z,10.1
2018-10-07T19:08:47.567Z,10.1
2018-10-07T19:13:50.003Z,10
2018-10-07T19:18:52.459Z,10.1
2018-10-07T19:23:54.927Z,10.1
2018-10-07T19:28:57.324Z,10.1
2018-10-07T19:33:59.792Z,10.1
2018-10-07T19:39:02.207Z,10
2018-10-07T19:44:04.648Z,10.1
2018-10-07T19:49:07.078Z,10
2018-10-07T19:54:09.568Z,10
2018-10-07T19:59:11.963Z,9.9
2018-10-07T20:04:14.411Z,9.9
2018-10-07T20:09:16.867Z,9.9
2018-10-07T20:14:19.316Z,9.9
2018-10-07T20:19:21.785Z,9.9
2018-10-07T20:24:24.159Z,9.9
2018-10-07T20:29:26.594Z,9.9
2018-10-07T20:34:29.046Z,9.9
2018-10-07T20:39:31.473Z,9.9
2018-10-07T20:44:33.920Z,9.9
2018-10-07T20:49:36.358Z,9.9
2018-10-07T20:54:38.823Z,9.9
2018-10-07T20:59:41.238Z,9.9
2018-10-07T21:04:43.676Z,9.9
2018-10-07T21:09:46.119Z,9.9
2018-10-07T21:14:48.558Z,9.9
2018-10-07T21:19:51.005Z,9.8
2018-10-07T21:24:53.449Z,9.8
2018-10-07T21:29:55.888Z,9.8
2018-10-07T21:34:58.386Z,9.8
2018-10-07T21:40:00.777Z,9.8
2018-10-07T21:45:03.217Z,9.8
2018-10-07T21:50:05.646Z,9.8
2018-10-07T21:55:08.155Z,9.8
2018-10-07T22:00:10.568Z,9.7
2018-10-07T22:05:12.997Z,9.7
2018-10-07T22:10:15.437Z,9.7
2018-10-07T22:15:17.850Z,9.7
2018-10-07T22:20:20.300Z,9.7
2018-10-07T22:25:22.743Z,9.7
2018-10-07T22:30:25.183Z,9.7
2018-10-07T22:35:27.609Z,9.6
2018-10-07T22:40:30.065Z,9.6
2018-10-07T22:45:32.491Z,9.6
2018-10-07T22:50:34.930Z,9.6
2018-10-07T22:55:37.369Z,9.6
2018-10-07T23:00:39.826Z,9.6
2018-10-07T23:05:42.261Z,9.6
2018-10-07T23:10:44.708Z,9.6
2018-10-07T23:15:47.271Z,9.6
2018-10-07T23:20:49.568Z,9.6
2018-10-07T23:25:52.041Z,9.5
2018-10-07T23:30:54.455Z,9.5
2018-10-07T23:35:56.894Z,9.5
2018-10-07T23:40:59.418Z,9.5
2018-10-07T23:46:01.813Z,9.5
2018-10-07T23:51:04.210Z,9.5
2018-10-07T23:56:06.656Z,9.4
